ENSD/SDN METAR and TAF weather

Enter ICAO airport designator
Station Type Date Time Source
ENSD METAR 2018/07/21 11:20 UTC NOAA

ENSD 211120Z VRB02KT 9999 FEW043 SCT098 21/09 Q1009 RMK WIND 1138FT 33004KT


Station Type Date Time Source
ENSD Decoded METAR 2018/07/21 11:20 UTC NOAA

Sandane / Anda, Norway (ENSD) 61-50N 006-07E 60M
Jul 21, 2018 - 07:20 AM EDT / 2018.07.21 1120 UTC
Wind: Variable at 2 MPH (2 KT):0
Visibility: greater than 7 mile(s):0
Sky conditions: partly cloudy
Temperature: 69 F (21 C)
Dew Point: 48 F (9 C)
Relative Humidity: 46%
Pressure (altimeter): 29.80 in. Hg (1009 hPa)
ob: ENSD 211120Z VRB02KT 9999 FEW043 SCT098 21/09 Q1009 RMK WIND 1138FT 33004KT
cycle: 11

Station Type Date Time Source
ENSD TAF UTC NOAA

Error!


Example: see airport list